createdAt,value
2024-01-05T00:01:33.766Z,91743.19
2024-01-05T00:04:01.938Z,91741.25
2024-01-05T00:06:29.568Z,91737.41
2024-01-05T00:08:56.674Z,91732.47
2024-01-05T00:11:23.565Z,91717.69
2024-01-05T00:13:50.235Z,91718.03
2024-01-05T00:16:18.434Z,91712.50
2024-01-05T00:18:45.247Z,91715.81
2024-01-05T00:21:27.022Z,91709.84
2024-01-05T00:23:55.058Z,91717.06
2024-01-05T00:26:22.299Z,91719.41
2024-01-05T00:28:51.368Z,91715.41
2024-01-05T00:31:18.380Z,91710.41
2024-01-05T00:33:45.792Z,91721.31
2024-01-05T00:36:12.887Z,91728.06
2024-01-05T00:38:42.250Z,91726.00
2024-01-05T00:41:08.777Z,91725.22
2024-01-05T00:43:35.244Z,91722.41
2024-01-05T00:46:01.701Z,91715.66
2024-01-05T00:48:28.305Z,91716.75
2024-01-05T00:50:54.905Z,91710.19
2024-01-05T00:53:21.489Z,91709.22
2024-01-05T00:55:47.930Z,91701.47
2024-01-05T00:58:14.386Z,91706.63
2024-01-05T01:00:40.902Z,91701.31
2024-01-05T01:03:07.562Z,91706.78
2024-01-05T01:05:34.135Z,91703.16
2024-01-05T01:08:01.342Z,91704.13
2024-01-05T01:10:27.800Z,91706.72
2024-01-05T01:12:54.336Z,91696.66
2024-01-05T01:15:21.282Z,91699.00
2024-01-05T01:17:47.975Z,91703.75
2024-01-05T01:20:14.660Z,91700.13
2024-01-05T01:22:41.162Z,91690.22
2024-01-05T01:25:07.814Z,91691.56
2024-01-05T01:27:35.436Z,91692.41
2024-01-05T01:30:02.203Z,91692.97
2024-01-05T01:32:29.539Z,91684.16
2024-01-05T01:34:56.270Z,91683.16
2024-01-05T01:37:23.021Z,91681.56
2024-01-05T01:39:49.480Z,91683.63
2024-01-05T01:42:16.079Z,91677.66
2024-01-05T01:44:42.615Z,91672.00
2024-01-05T01:47:09.159Z,91669.66
2024-01-05T01:49:36.072Z,91668.31
2024-01-05T01:52:02.859Z,91677.09
2024-01-05T01:54:34.294Z,91673.75
2024-01-05T01:57:03.465Z,91665.47
2024-01-05T01:59:30.253Z,91657.16
2024-01-05T02:01:58.655Z,91654.56
2024-01-05T02:04:27.067Z,91652.75
2024-01-05T02:06:53.715Z,91669.09
2024-01-05T02:09:20.316Z,91667.53
2024-01-05T02:11:46.894Z,91663.59
2024-01-05T02:14:13.485Z,91658.66
2024-01-05T02:16:42.143Z,91649.56
2024-01-05T02:19:09.008Z,91629.63
2024-01-05T02:21:40.109Z,91623.97
2024-01-05T02:24:07.015Z,91638.97
2024-01-05T02:26:33.771Z,91632.91
2024-01-05T02:29:03.890Z,91625.38
2024-01-05T02:31:30.511Z,91638.38
2024-01-05T02:33:57.112Z,91641.25
2024-01-05T02:36:23.639Z,91633.47
2024-01-05T02:38:50.188Z,91635.81
2024-01-05T02:41:16.692Z,91624.66
2024-01-05T02:43:43.187Z,91624.66
2024-01-05T02:46:10.299Z,91617.66
2024-01-05T02:48:36.927Z,91623.41
2024-01-05T02:51:03.578Z,91619.47
2024-01-05T02:53:30.084Z,91627.56
2024-01-05T02:55:56.533Z,91614.69
2024-01-05T02:58:22.980Z,91608.91
2024-01-05T03:00:49.660Z,91614.53
2024-01-05T03:03:16.311Z,91618.94
2024-01-05T03:05:42.884Z,91624.44
2024-01-05T03:08:10.314Z,91629.38
2024-01-05T03:10:36.788Z,91626.56
2024-01-05T03:13:03.801Z,91619.06
2024-01-05T03:15:30.258Z,91622.13
2024-01-05T03:17:56.943Z,91607.31
2024-01-05T03:20:23.503Z,91607.88
2024-01-05T03:22:50.036Z,91605.81
2024-01-05T03:25:16.553Z,91613.59
2024-01-05T03:27:43.032Z,91606.38
2024-01-05T03:30:09.868Z,91599.13
2024-01-05T03:32:36.480Z,91601.00
2024-01-05T03:35:03.034Z,91603.84
2024-01-05T03:37:29.489Z,91603.53
2024-01-05T03:39:56.122Z,91590.50
2024-01-05T03:42:22.608Z,91590.44
2024-01-05T03:44:49.117Z,91577.72
2024-01-05T03:47:15.583Z,91568.44
2024-01-05T03:49:42.159Z,91574.97
2024-01-05T03:52:10.717Z,91572.63
2024-01-05T03:54:37.221Z,91568.22
2024-01-05T03:57:03.959Z,91574.66
2024-01-05T03:59:30.433Z,91574.66
2024-01-05T04:01:56.928Z,91574.72
2024-01-05T04:04:23.508Z,91577.59
2024-01-05T04:06:52.274Z,91568.03
2024-01-05T04:09:18.864Z,91558.06
2024-01-05T04:11:45.438Z,91558.63
2024-01-05T04:14:11.897Z,91552.19
2024-01-05T04:16:38.348Z,91540.56
2024-01-05T04:19:04.936Z,91542.59
2024-01-05T04:21:31.887Z,91538.44
2024-01-05T04:23:59.139Z,91535.38
2024-01-05T04:26:26.321Z,91535.13
2024-01-05T04:28:52.816Z,91539.28
2024-01-05T04:31:19.553Z,91536.16
2024-01-05T04:33:46.183Z,91531.44
2024-01-05T04:36:16.624Z,91535.06
2024-01-05T04:38:43.936Z,91534.84
2024-01-05T04:41:11.318Z,91532.00
2024-01-05T04:43:37.756Z,91535.88
2024-01-05T04:46:06.136Z,91533.31
2024-01-05T04:48:32.806Z,91540.63
2024-01-05T04:50:59.619Z,91542.72
2024-01-05T04:53:26.138Z,91531.31
2024-01-05T04:55:52.847Z,91541.22
2024-01-05T04:58:19.832Z,91524.88
2024-01-05T05:00:46.760Z,91519.94
2024-01-05T05:03:15.230Z,91520.97
2024-01-05T05:05:41.928Z,91514.97
2024-01-05T05:08:11.580Z,91510.22
2024-01-05T05:10:38.758Z,91509.47
2024-01-05T05:13:05.295Z,91506.63
2024-01-05T05:15:32.138Z,91507.28
2024-01-05T05:17:58.928Z,91500.34
2024-01-05T05:20:25.671Z,91502.22
2024-01-05T05:22:52.145Z,91504.34
2024-01-05T05:25:18.663Z,91505.13
2024-01-05T05:27:45.121Z,91507.41
2024-01-05T05:30:12.117Z,91510.78
2024-01-05T05:32:38.741Z,91508.75
2024-01-05T05:35:06.509Z,91515.41
2024-01-05T05:37:32.969Z,91526.56
2024-01-05T05:39:59.769Z,91519.88
2024-01-05T05:42:26.471Z,91517.34
2024-01-05T05:44:52.968Z,91505.91
2024-01-05T05:47:19.490Z,91511.63
2024-01-05T05:49:46.114Z,91508.00
2024-01-05T05:52:12.728Z,91521.03
2024-01-05T05:54:39.270Z,91517.66
2024-01-05T05:57:09.088Z,91527.78
2024-01-05T05:59:35.738Z,91533.56
2024-01-05T06:02:02.327Z,91537.19
2024-01-05T06:04:28.828Z,91542.84
2024-01-05T06:06:55.596Z,91549.59
2024-01-05T06:09:22.127Z,91536.88
2024-01-05T06:11:48.613Z,91534.53
2024-01-05T06:14:16.152Z,91540.31
2024-01-05T06:16:42.666Z,91540.31
2024-01-05T06:19:10.631Z,91530.47
2024-01-05T06:21:37.436Z,91521.44
2024-01-05T06:24:04.560Z,91526.38
2024-01-05T06:26:32.204Z,91533.13
2024-01-05T06:28:58.887Z,91539.09
2024-01-05T06:31:25.796Z,91534.47
2024-01-05T06:33:52.560Z,91528.25
2024-01-05T06:36:19.339Z,91533.72
2024-01-05T06:38:45.857Z,91531.38
2024-01-05T06:41:12.354Z,91541.22
2024-01-05T06:43:38.846Z,91537.34
2024-01-05T06:46:05.997Z,91538.88
2024-01-05T06:48:33.090Z,91529.75
2024-01-05T06:51:00.919Z,91528.97
2024-01-05T06:53:29.986Z,91521.75
2024-01-05T06:55:56.561Z,91517.34
2024-01-05T06:58:25.055Z,91514.78
2024-01-05T07:00:51.990Z,91514.56
2024-01-05T07:03:18.744Z,91511.47
2024-01-05T07:05:45.653Z,91512.53
2024-01-05T07:08:12.356Z,91511.47
2024-01-05T07:10:38.903Z,91511.97
2024-01-05T07:13:08.175Z,91525.41
2024-01-05T07:15:34.939Z,91519.75
2024-01-05T07:18:01.601Z,91517.16
2024-01-05T07:20:28.300Z,91517.91
2024-01-05T07:22:54.762Z,91518.41
2024-01-05T07:25:21.241Z,91516.63
2024-01-05T07:27:47.701Z,91508.03
2024-01-05T07:30:14.571Z,91503.66
2024-01-05T07:32:41.576Z,91506.19
2024-01-05T07:35:08.243Z,91505.41
2024-01-05T07:37:34.730Z,91499.53
2024-01-05T07:40:01.302Z,91499.53
2024-01-05T07:42:28.792Z,91504.22
2024-01-05T07:44:58.538Z,91504.94
2024-01-05T07:47:25.531Z,91509.03
2024-01-05T07:49:52.300Z,91516.63
2024-01-05T07:52:18.904Z,91507.84
2024-01-05T07:54:45.583Z,91511.47
2024-01-05T07:57:12.139Z,91506.34
2024-01-05T07:59:38.641Z,91510.56
2024-01-05T08:02:05.205Z,91518.91
2024-01-05T08:04:31.842Z,91508.06
2024-01-05T08:06:58.503Z,91505.53
2024-01-05T08:09:25.099Z,91507.66
2024-01-05T08:11:51.647Z,91505.09
2024-01-05T08:14:18.444Z,91503.53
2024-01-05T08:16:44.930Z,91501.47
2024-01-05T08:19:11.635Z,91498.66
2024-01-05T08:21:38.694Z,91493.47
2024-01-05T08:24:05.769Z,91488.56
2024-01-05T08:26:32.401Z,91489.09
2024-01-05T08:28:58.877Z,91487.03
2024-01-05T08:31:25.573Z,91497.34
2024-01-05T08:33:52.402Z,91500.50
2024-01-05T08:36:19.249Z,91502.34
2024-01-05T08:38:46.240Z,91500.06
2024-01-05T08:41:13.081Z,91494.69
2024-01-05T08:43:42.480Z,91492.91
2024-01-05T08:46:09.167Z,91488.28
2024-01-05T08:48:35.785Z,91482.09
2024-01-05T08:51:02.616Z,91493.56
2024-01-05T08:53:29.194Z,91490.47
2024-01-05T08:55:55.673Z,91499.88
2024-01-05T08:58:22.382Z,91494.19
2024-01-05T09:00:49.071Z,91491.91
2024-01-05T09:03:16.023Z,91494.53
2024-01-05T09:05:42.758Z,91493.28
2024-01-05T09:08:09.332Z,91505.00
2024-01-05T09:10:35.978Z,91510.72
2024-01-05T09:13:02.561Z,91509.69
2024-01-05T09:15:29.170Z,91505.84
2024-01-05T09:17:56.069Z,91507.44
2024-01-05T09:20:22.589Z,91510.59
2024-01-05T09:22:49.103Z,91508.56
2024-01-05T09:25:15.666Z,91502.84
2024-01-05T09:27:42.301Z,91494.81
2024-01-05T09:30:09.719Z,91501.09
2024-01-05T09:32:36.479Z,91506.31
2024-01-05T09:35:03.814Z,91510.25
2024-01-05T09:37:30.288Z,91514.16
2024-01-05T09:39:56.857Z,91510.78
2024-01-05T09:42:24.166Z,91517.06
2024-01-05T09:44:53.108Z,91514.19
2024-01-05T09:47:20.900Z,91518.09
2024-01-05T09:49:50.769Z,91520.16
2024-01-05T09:52:19.707Z,91515.44
2024-01-05T09:54:47.514Z,91520.91
2024-01-05T09:57:17.871Z,91506.56
2024-01-05T09:59:50.272Z,91504.97
2024-01-05T10:02:26.904Z,91499.19
2024-01-05T10:04:55.264Z,91485.09
2024-01-05T10:07:22.276Z,91497.59
2024-01-05T10:09:51.066Z,91485.59
2024-01-05T10:12:19.090Z,91477.78
2024-01-05T10:14:49.087Z,91473.56
2024-01-05T10:17:17.051Z,91480.28
2024-01-05T10:19:44.151Z,91481.03
2024-01-05T10:22:14.888Z,91484.91
2024-01-05T10:24:43.138Z,91487.78
2024-01-05T10:27:11.767Z,91494.22
2024-01-05T10:29:46.543Z,91495.53
2024-01-05T10:32:20.631Z,91494.75
2024-01-05T10:34:49.949Z,91499.66
2024-01-05T10:37:18.162Z,91506.22
2024-01-05T10:39:48.943Z,91501.75
2024-01-05T10:42:22.274Z,91507.22
2024-01-05T10:44:52.381Z,91499.66
2024-01-05T10:47:20.903Z,91502.81
2024-01-05T10:49:50.241Z,91514.09
2024-01-05T10:52:21.526Z,91506.31
2024-01-05T10:54:50.155Z,91508.69
2024-01-05T10:57:17.642Z,91507.34
2024-01-05T10:59:48.217Z,91501.59
2024-01-05T11:02:22.751Z,91500.03
2024-01-05T11:05:01.098Z,91500.03
2024-01-05T11:07:32.939Z,91484.63
2024-01-05T11:10:28.569Z,91469.72
2024-01-05T11:13:10.134Z,91471.53
2024-01-05T11:15:58.331Z,91469.16
2024-01-05T11:18:41.646Z,91480.41
2024-01-05T11:21:47.089Z,91480.78
2024-01-05T11:24:17.621Z,91482.78
2024-01-05T11:26:45.428Z,91482.50
2024-01-05T11:29:46.849Z,91480.69
2024-01-05T11:32:36.417Z,91485.34
2024-01-05T11:35:04.235Z,91481.63
2024-01-05T11:37:32.386Z,91481.72
2024-01-05T11:40:02.523Z,91486.94
2024-01-05T11:42:30.826Z,91482.22
2024-01-05T11:44:59.080Z,91477.50
2024-01-05T11:47:48.240Z,91469.50
2024-01-05T11:50:27.411Z,91469.50
2024-01-05T11:53:07.659Z,91460.38
2024-01-05T11:55:40.479Z,91463.44
2024-01-05T11:58:08.520Z,91450.38
2024-01-05T12:00:36.676Z,91447.56
2024-01-05T12:03:04.088Z,91446.22
2024-01-05T12:05:30.753Z,91438.34
2024-01-05T12:07:57.380Z,91433.16
2024-01-05T12:10:28.448Z,91427.88
2024-01-05T12:12:56.253Z,91425.19
2024-01-05T12:15:23.864Z,91421.53
2024-01-05T12:17:50.535Z,91418.44
2024-01-05T12:20:18.750Z,91415.78
2024-01-05T12:22:45.347Z,91401.13
2024-01-05T12:25:12.568Z,91407.91
2024-01-05T12:27:40.075Z,91404.09
2024-01-05T12:30:08.366Z,91413.16
2024-01-05T12:32:35.410Z,91401.13
2024-01-05T12:35:06.105Z,91402.44
2024-01-05T12:37:35.325Z,91393.34
2024-01-05T12:40:12.783Z,91400.78
2024-01-05T12:42:40.260Z,91398.19
2024-01-05T12:45:07.647Z,91400.59
2024-01-05T12:47:35.130Z,91396.22
2024-01-05T12:50:03.002Z,91387.03
2024-01-05T12:52:38.596Z,91392.50
2024-01-05T12:55:05.921Z,91394.00
2024-01-05T12:57:35.573Z,91399.72
2024-01-05T13:00:07.573Z,91394.41
2024-01-05T13:02:39.988Z,91394.91
2024-01-05T13:05:26.737Z,91399.06
2024-01-05T13:07:54.741Z,91390.38
2024-01-05T13:10:22.804Z,91400.59
2024-01-05T13:12:49.590Z,91396.47
2024-01-05T13:15:16.584Z,91402.53
2024-01-05T13:17:47.799Z,91406.91
2024-01-05T13:20:25.601Z,91414.72
2024-01-05T13:22:53.280Z,91406.28
2024-01-05T13:25:19.877Z,91407.97
2024-01-05T13:27:47.218Z,91404.78
2024-01-05T13:30:17.350Z,91400.13
2024-01-05T13:32:46.145Z,91402.69
2024-01-05T13:35:12.849Z,91407.66
2024-01-05T13:37:40.300Z,91409.81
2024-01-05T13:40:07.623Z,91411.88
2024-01-05T13:42:34.804Z,91402.44
2024-01-05T13:45:07.660Z,91409.47
2024-01-05T13:47:35.696Z,91412.25
2024-01-05T13:50:03.708Z,91418.47
2024-01-05T13:52:30.499Z,91416.91
2024-01-05T13:54:57.300Z,91419.09
2024-01-05T13:57:24.045Z,91418.31
2024-01-05T13:59:51.044Z,91424.31
2024-01-05T14:02:18.889Z,91424.81
2024-01-05T14:04:45.654Z,91430.31
2024-01-05T14:07:12.107Z,91430.59
2024-01-05T14:09:38.725Z,91432.41
2024-01-05T14:12:05.770Z,91430.59
2024-01-05T14:14:32.334Z,91430.59
2024-01-05T14:16:58.842Z,91428.25
2024-01-05T14:19:26.213Z,91432.97
2024-01-05T14:21:53.013Z,91428.84
2024-01-05T14:24:19.628Z,91432.22
2024-01-05T14:26:48.601Z,91433.78
2024-01-05T14:29:18.735Z,91432.78
2024-01-05T14:31:45.982Z,91433.84
2024-01-05T14:34:13.205Z,91445.09
2024-01-05T14:36:39.858Z,91445.09
2024-01-05T14:39:07.293Z,91444.34
2024-01-05T14:41:34.541Z,91447.50
2024-01-05T14:44:01.390Z,91443.97
2024-01-05T14:46:29.709Z,91443.47
2024-01-05T14:48:56.440Z,91446.31
2024-01-05T14:51:24.115Z,91447.94
2024-01-05T14:53:50.677Z,91445.03
2024-01-05T14:56:17.158Z,91443.25
2024-01-05T14:58:45.692Z,91444.00
2024-01-05T15:01:14.294Z,91440.84
2024-01-05T15:03:41.001Z,91437.94
2024-01-05T15:06:09.690Z,91434.50
2024-01-05T15:08:37.201Z,91433.69
2024-01-05T15:11:04.798Z,91439.97
2024-01-05T15:13:31.545Z,91437.13
2024-01-05T15:15:59.768Z,91433.53
2024-01-05T15:18:27.880Z,91433.81
2024-01-05T15:20:55.067Z,91433.56
2024-01-05T15:23:21.573Z,91437.75
2024-01-05T15:25:48.178Z,91436.66
2024-01-05T15:28:15.188Z,91430.00
2024-01-05T15:30:41.856Z,91436.22
2024-01-05T15:33:08.504Z,91430.75
2024-01-05T15:35:36.756Z,91438.69
2024-01-05T15:38:04.921Z,91430.63
2024-01-05T15:40:33.177Z,91431.69
2024-01-05T15:43:00.897Z,91425.16
2024-01-05T15:45:29.865Z,91428.50
2024-01-05T15:47:56.787Z,91436.78
2024-01-05T15:50:24.688Z,91432.13
2024-01-05T15:52:51.182Z,91431.91
2024-01-05T15:55:20.089Z,91423.31
2024-01-05T15:57:47.738Z,91429.53
2024-01-05T16:00:15.202Z,91426.16
2024-01-05T16:02:41.750Z,91423.78
2024-01-05T16:05:09.005Z,91416.75
2024-01-05T16:07:35.998Z,91425.06
2024-01-05T16:10:03.345Z,91411.53
2024-01-05T16:12:29.851Z,91420.41
2024-01-05T16:14:56.312Z,91418.34
2024-01-05T16:17:22.761Z,91423.03
2024-01-05T16:19:49.356Z,91420.94
2024-01-05T16:22:16.044Z,91422.50
2024-01-05T16:24:42.519Z,91424.38
2024-01-05T16:27:09.109Z,91429.03
2024-01-05T16:29:35.568Z,91426.69
2024-01-05T16:32:02.009Z,91421.72
2024-01-05T16:34:28.566Z,91429.53
2024-01-05T16:36:55.102Z,91434.53
2024-01-05T16:39:21.654Z,91427.22
2024-01-05T16:41:49.648Z,91433.78
2024-01-05T16:44:16.093Z,91436.41
2024-01-05T16:46:42.564Z,91434.31
2024-01-05T16:49:09.246Z,91426.47
2024-01-05T16:51:35.938Z,91435.34
2024-01-05T16:54:02.468Z,91432.22
2024-01-05T16:56:30.316Z,91440.84
2024-01-05T16:58:57.834Z,91437.72
2024-01-05T17:01:25.184Z,91443.69
2024-01-05T17:03:54.877Z,91434.84
2024-01-05T17:06:21.760Z,91440.59
2024-01-05T17:08:48.345Z,91436.97
2024-01-05T17:11:16.019Z,91438.50
2024-01-05T17:13:42.513Z,91440.63
2024-01-05T17:16:12.079Z,91443.78
2024-01-05T17:18:39.160Z,91439.63
2024-01-05T17:21:06.425Z,91442.25
2024-01-05T17:23:33.011Z,91439.63
2024-01-05T17:26:01.917Z,91447.22
2024-01-05T17:28:29.668Z,91461.84
2024-01-05T17:30:57.913Z,91457.41
2024-01-05T17:33:25.895Z,91463.16
2024-01-05T17:35:56.252Z,91457.19
2024-01-05T17:38:22.866Z,91455.63
2024-01-05T17:40:49.367Z,91455.59
2024-01-05T17:43:15.828Z,91472.03
2024-01-05T17:45:42.818Z,91464.47
2024-01-05T17:50:35.813Z,91464.75
2024-01-05T17:53:02.379Z,91472.31
2024-01-05T17:55:28.930Z,91471.28
2024-01-05T17:57:55.470Z,91470.22
2024-01-05T18:00:22.051Z,91459.53
2024-01-05T18:02:48.559Z,91465.28
2024-01-05T18:05:15.020Z,91455.91
2024-01-05T18:07:42.396Z,91455.91
2024-01-05T18:10:09.910Z,91453.28
2024-01-05T18:12:36.420Z,91460.88
2024-01-05T18:15:05.300Z,91452.00
2024-01-05T18:17:32.058Z,91469.19
2024-01-05T18:19:58.918Z,91465.78
2024-01-05T18:22:25.487Z,91469.19
2024-01-05T18:24:52.071Z,91471.56
2024-01-05T18:27:18.812Z,91472.59
2024-01-05T18:29:45.423Z,91478.34
2024-01-05T18:32:11.924Z,91474.38
2024-01-05T18:34:38.550Z,91481.97
2024-01-05T18:37:05.075Z,91484.59
2024-01-05T18:39:31.727Z,91486.66
2024-01-05T18:41:58.211Z,91484.59
2024-01-05T18:44:24.717Z,91488.78
2024-01-05T18:46:53.249Z,91484.63
2024-01-05T18:49:20.208Z,91482.00
2024-01-05T18:51:47.004Z,91486.97
2024-01-05T18:54:13.679Z,91486.47
2024-01-05T18:56:40.339Z,91496.34
2024-01-05T18:59:06.928Z,91490.91
2024-01-05T19:01:33.772Z,91496.63
2024-01-05T19:04:00.599Z,91488.81
2024-01-05T19:06:27.423Z,91496.13
2024-01-05T19:08:54.104Z,91496.91
2024-01-05T19:11:21.103Z,91494.84
2024-01-05T19:13:47.696Z,91494.03
2024-01-05T19:16:14.290Z,91503.44
2024-01-05T19:18:41.586Z,91503.44
2024-01-05T19:21:08.303Z,91506.06
2024-01-05T19:23:35.070Z,91502.91
2024-01-05T19:26:02.666Z,91507.38
2024-01-05T19:28:29.742Z,91501.88
2024-01-05T19:30:56.566Z,91491.72
2024-01-05T19:33:23.600Z,91506.59
2024-01-05T19:35:50.878Z,91507.34
2024-01-05T19:38:18.458Z,91506.84
2024-01-05T19:40:45.133Z,91507.09
2024-01-05T19:43:12.418Z,91513.84
2024-01-05T19:45:39.226Z,91502.91
2024-01-05T19:48:06.666Z,91506.56
2024-01-05T19:50:33.313Z,91504.47
2024-01-05T19:53:01.680Z,91512.03
2024-01-05T19:55:28.624Z,91507.59
2024-01-05T19:57:55.271Z,91512.81
2024-01-05T20:00:22.368Z,91513.59
2024-01-05T20:02:49.151Z,91512.56
2024-01-05T20:05:15.623Z,91510.75
2024-01-05T20:07:42.132Z,91509.69
2024-01-05T20:10:09.164Z,91512.31
2024-01-05T20:12:36.410Z,91506.03
2024-01-05T20:15:03.294Z,91505.53
2024-01-05T20:17:29.883Z,91507.38
2024-01-05T20:19:56.841Z,91500.59
2024-01-05T20:22:24.818Z,91501.09
2024-01-05T20:24:51.547Z,91503.97
2024-01-05T20:27:18.177Z,91497.19
2024-01-05T20:29:46.351Z,91505.53
2024-01-05T20:32:14.238Z,91496.41
2024-01-05T20:34:40.862Z,91496.69
2024-01-05T20:37:07.414Z,91497.22
2024-01-05T20:39:34.196Z,91494.59
2024-01-05T20:42:00.715Z,91496.69
2024-01-05T20:44:27.204Z,91495.09
2024-01-05T20:46:53.849Z,91491.72
2024-01-05T20:49:20.625Z,91500.59
2024-01-05T20:51:47.413Z,91498.78
2024-01-05T20:54:14.356Z,91494.84
2024-01-05T20:56:41.065Z,91501.91
2024-01-05T20:59:07.700Z,91492.53
2024-01-05T21:01:34.676Z,91495.91
2024-01-05T21:04:01.365Z,91499.56
2024-01-05T21:06:28.160Z,91497.75
2024-01-05T21:08:54.697Z,91493.81
2024-01-05T21:11:25.183Z,91499.31
2024-01-05T21:13:51.918Z,91508.69
2024-01-05T21:16:19.515Z,91496.72
2024-01-05T21:18:46.303Z,91500.38
2024-01-05T21:21:13.007Z,91491.00
2024-01-05T21:23:40.869Z,91494.13
2024-01-05T21:26:07.430Z,91500.38
2024-01-05T21:28:33.967Z,91504.53
2024-01-05T21:31:05.129Z,91504.78
2024-01-05T21:33:32.309Z,91493.59
2024-01-05T21:35:58.862Z,91492.03
2024-01-05T21:38:25.341Z,91489.94
2024-01-05T21:40:51.913Z,91487.09
2024-01-05T21:43:21.412Z,91488.66
2024-01-05T21:45:47.956Z,91489.44
2024-01-05T21:48:14.657Z,91484.47
2024-01-05T21:50:41.970Z,91485.28
2024-01-05T21:53:08.568Z,91486.31
2024-01-05T21:55:35.211Z,91489.19
2024-01-05T21:58:01.829Z,91485.78
2024-01-05T22:00:28.706Z,91490.22
2024-01-05T22:02:55.513Z,91484.22
2024-01-05T22:05:22.828Z,91483.47
2024-01-05T22:07:49.678Z,91491.00
2024-01-05T22:10:16.199Z,91487.88
2024-01-05T22:12:42.755Z,91496.16
2024-01-05T22:15:09.392Z,91498.75
2024-01-05T22:17:36.001Z,91499.78
2024-01-05T22:20:04.105Z,91507.34
2024-01-05T22:22:30.805Z,91495.63
2024-01-05T22:24:57.814Z,91507.81
2024-01-05T22:27:25.515Z,91509.66
2024-01-05T22:29:52.360Z,91512.78
2024-01-05T22:32:18.831Z,91515.38
2024-01-05T22:34:45.409Z,91513.53
2024-01-05T22:37:11.935Z,91512.22
2024-01-05T22:39:39.101Z,91511.72
2024-01-05T22:42:06.456Z,91507.56
2024-01-05T22:44:33.190Z,91503.41
2024-01-05T22:47:05.681Z,91502.34
2024-01-05T22:49:33.100Z,91501.28
2024-01-05T22:51:59.992Z,91503.13
2024-01-05T22:54:26.516Z,91513.25
2024-01-05T22:56:53.097Z,91504.16
2024-01-05T22:59:19.613Z,91506.50
2024-01-05T23:01:46.881Z,91503.09
2024-01-05T23:04:13.584Z,91502.84
2024-01-05T23:06:40.208Z,91504.94
2024-01-05T23:09:07.532Z,91506.50
2024-01-05T23:11:34.076Z,91507.22
2024-01-05T23:14:00.619Z,91504.91
2024-01-05T23:16:27.100Z,91507.78
2024-01-05T23:18:53.796Z,91498.69
2024-01-05T23:21:20.415Z,91505.16
2024-01-05T23:23:47.014Z,91500.25
2024-01-05T23:26:17.512Z,91504.41
2024-01-05T23:28:44.318Z,91502.28
2024-01-05T23:31:11.228Z,91499.66
2024-01-05T23:33:38.109Z,91504.34
2024-01-05T23:36:04.964Z,91506.44
2024-01-05T23:38:31.514Z,91510.06
2024-01-05T23:40:58.048Z,91505.66
2024-01-05T23:43:24.525Z,91506.19
2024-01-05T23:45:51.132Z,91512.66
2024-01-05T23:48:17.744Z,91513.69
2024-01-05T23:50:44.705Z,91504.56
2024-01-05T23:53:11.278Z,91513.84
2024-01-05T23:55:37.790Z,91515.69
2024-01-05T23:58:04.491Z,91512.81
